createdAt,value
2022-10-22T00:01:16.490Z,57.00
2022-10-22T00:03:44.655Z,57.09
2022-10-22T00:06:12.744Z,56.74
2022-10-22T00:08:40.905Z,57.02
2022-10-22T00:11:10.975Z,57.40
2022-10-22T00:13:39.258Z,57.16
2022-10-22T00:16:09.081Z,57.34
2022-10-22T00:18:37.572Z,56.88
2022-10-22T00:21:07.117Z,57.27
2022-10-22T00:23:35.508Z,57.49
2022-10-22T00:26:03.436Z,57.41
2022-10-22T00:28:31.441Z,56.92
2022-10-22T00:31:00.055Z,57.12
2022-10-22T00:33:30.743Z,57.34
2022-10-22T00:35:59.256Z,57.45
2022-10-22T00:38:27.597Z,57.15
2022-10-22T00:40:55.748Z,57.05
2022-10-22T00:43:23.735Z,57.04
2022-10-22T00:45:51.716Z,57.62
2022-10-22T00:48:24.091Z,57.53
2022-10-22T00:50:56.491Z,57.44
2022-10-22T00:53:28.497Z,57.82
2022-10-22T00:55:57.106Z,57.51
2022-10-22T00:58:30.127Z,57.28
2022-10-22T01:00:58.960Z,57.12
2022-10-22T01:03:26.963Z,57.39
2022-10-22T01:05:59.641Z,57.51
2022-10-22T01:08:36.364Z,57.20
2022-10-22T01:11:14.527Z,57.85
2022-10-22T01:13:54.673Z,57.58
2022-10-22T01:16:31.906Z,57.93
2022-10-22T01:19:11.251Z,57.47
2022-10-22T01:21:45.733Z,57.58
2022-10-22T01:24:36.753Z,57.75
2022-10-22T01:27:25.459Z,57.76
2022-10-22T01:29:59.374Z,57.68
2022-10-22T01:32:29.460Z,57.82
2022-10-22T01:35:02.761Z,57.70
2022-10-22T01:37:33.128Z,57.63
2022-10-22T01:40:02.958Z,57.48
2022-10-22T01:42:30.900Z,57.90
2022-10-22T01:45:00.200Z,57.35
2022-10-22T01:47:44.415Z,58.07
2022-10-22T01:50:29.178Z,57.95
2022-10-22T01:53:08.307Z,57.58
2022-10-22T01:55:44.921Z,57.73
2022-10-22T01:58:21.394Z,58.06
2022-10-22T02:00:59.360Z,57.93
2022-10-22T02:03:34.102Z,57.89
2022-10-22T02:06:10.070Z,57.84
2022-10-22T02:08:38.757Z,58.03
2022-10-22T02:11:07.420Z,58.08
2022-10-22T02:13:40.760Z,57.67
2022-10-22T02:16:13.653Z,57.61
2022-10-22T02:18:46.172Z,58.04
2022-10-22T02:21:14.733Z,58.64
2022-10-22T02:23:42.870Z,58.21
2022-10-22T02:26:17.643Z,58.07
2022-10-22T02:28:51.195Z,57.56
2022-10-22T02:31:24.632Z,57.80
2022-10-22T02:33:56.146Z,57.53
2022-10-22T02:36:25.947Z,57.84
2022-10-22T02:38:55.427Z,57.97
2022-10-22T02:41:24.574Z,58.01
2022-10-22T02:43:55.850Z,57.88
2022-10-22T02:46:26.794Z,58.14
2022-10-22T02:48:54.778Z,57.67
2022-10-22T02:51:22.817Z,58.20
2022-10-22T02:53:50.844Z,58.31
2022-10-22T02:56:19.015Z,57.95
2022-10-22T02:58:46.945Z,57.80
2022-10-22T03:01:16.180Z,57.71
2022-10-22T03:03:45.735Z,57.91
2022-10-22T03:06:14.071Z,57.96
2022-10-22T03:08:42.284Z,58.44
2022-10-22T03:11:10.373Z,57.89
2022-10-22T03:13:39.028Z,57.74
2022-10-22T03:16:07.920Z,57.61
2022-10-22T03:18:36.533Z,58.13
2022-10-22T03:21:11.449Z,58.01
2022-10-22T03:23:41.470Z,57.87
2022-10-22T03:26:10.308Z,58.08
2022-10-22T03:28:39.279Z,58.14
2022-10-22T03:31:07.604Z,57.88
2022-10-22T03:33:35.465Z,57.70
2022-10-22T03:36:03.649Z,57.73
2022-10-22T03:38:33.006Z,58.07
2022-10-22T03:41:00.930Z,57.85
2022-10-22T03:43:29.063Z,58.20
2022-10-22T03:45:57.114Z,57.77
2022-10-22T03:48:25.407Z,58.05
2022-10-22T03:50:53.359Z,57.92
2022-10-22T03:53:21.374Z,57.60
2022-10-22T03:55:50.803Z,58.01
2022-10-22T03:58:18.755Z,57.51
2022-10-22T04:00:46.802Z,57.57
2022-10-22T04:03:14.777Z,57.51
2022-10-22T04:05:42.726Z,57.58
2022-10-22T04:08:10.720Z,57.70
2022-10-22T04:10:38.836Z,57.96
2022-10-22T04:13:08.483Z,58.26
2022-10-22T04:15:36.492Z,57.86
2022-10-22T04:18:04.613Z,57.82
2022-10-22T04:20:32.511Z,58.36
2022-10-22T04:23:00.431Z,58.29
2022-10-22T04:25:28.477Z,58.34
2022-10-22T04:27:56.429Z,58.31
2022-10-22T04:30:25.746Z,58.20
2022-10-22T04:32:53.802Z,58.17
2022-10-22T04:35:21.879Z,58.33
2022-10-22T04:37:49.744Z,58.13
2022-10-22T04:40:17.787Z,58.00
2022-10-22T04:42:45.678Z,57.88
2022-10-22T04:45:15.623Z,58.13
2022-10-22T04:47:44.893Z,57.90
2022-10-22T04:50:12.821Z,57.56
2022-10-22T04:52:40.689Z,57.62
2022-10-22T04:55:09.275Z,57.97
2022-10-22T04:57:37.279Z,57.81
2022-10-22T05:00:06.939Z,57.91
2022-10-22T05:02:35.038Z,57.96
2022-10-22T05:05:05.405Z,57.41
2022-10-22T05:07:33.300Z,57.48
2022-10-22T05:10:02.309Z,57.93
2022-10-22T05:12:30.991Z,57.60
2022-10-22T05:14:58.867Z,57.80
2022-10-22T05:17:30.381Z,57.49
2022-10-22T05:19:58.457Z,57.78
2022-10-22T05:22:27.817Z,57.78
2022-10-22T05:24:55.818Z,57.64
2022-10-22T05:27:23.806Z,57.49
2022-10-22T05:29:52.029Z,57.40
2022-10-22T05:32:19.912Z,57.73
2022-10-22T05:34:48.035Z,57.70
2022-10-22T05:37:15.894Z,57.68
2022-10-22T05:39:45.112Z,57.61
2022-10-22T05:42:13.029Z,57.52
2022-10-22T05:44:40.944Z,57.37
2022-10-22T05:47:10.104Z,57.25
2022-10-22T05:49:38.040Z,57.57
2022-10-22T05:52:06.149Z,57.77
2022-10-22T05:54:34.199Z,57.54
2022-10-22T05:57:03.482Z,57.21
2022-10-22T05:59:31.571Z,57.63
2022-10-22T06:01:59.557Z,57.15
2022-10-22T06:04:27.696Z,57.68
2022-10-22T06:06:55.672Z,57.67
2022-10-22T06:09:27.540Z,57.41
2022-10-22T06:11:56.538Z,57.44
2022-10-22T06:14:27.013Z,57.59
2022-10-22T06:16:55.847Z,57.57
2022-10-22T06:19:25.691Z,57.81
2022-10-22T06:21:53.993Z,57.87
2022-10-22T06:24:22.217Z,58.17
2022-10-22T06:26:51.526Z,58.04
2022-10-22T06:29:19.587Z,57.85
2022-10-22T06:31:49.131Z,57.88
2022-10-22T06:34:18.830Z,58.28
2022-10-22T06:36:47.116Z,57.78
2022-10-22T06:39:16.866Z,58.37
2022-10-22T06:41:44.809Z,58.46
2022-10-22T06:44:16.283Z,58.24
2022-10-22T06:46:44.588Z,58.35
2022-10-22T06:49:26.817Z,58.43
2022-10-22T06:52:01.562Z,58.72
2022-10-22T06:54:29.422Z,58.46
2022-10-22T06:56:57.199Z,58.12
2022-10-22T06:59:25.121Z,58.01
2022-10-22T07:01:53.054Z,58.32
2022-10-22T07:04:20.855Z,58.20
2022-10-22T07:06:48.589Z,58.30
2022-10-22T07:11:47.030Z,58.82
2022-10-22T07:14:15.875Z,58.86
2022-10-22T07:16:45.670Z,58.54
2022-10-22T07:19:14.282Z,58.86
2022-10-22T07:21:42.321Z,58.49
2022-10-22T07:24:10.436Z,58.96
2022-10-22T07:27:00.982Z,58.23
2022-10-22T07:29:29.740Z,58.23
2022-10-22T07:31:57.774Z,58.62
2022-10-22T07:34:25.796Z,58.03
2022-10-22T07:36:53.719Z,57.66
2022-10-22T07:39:21.766Z,57.31
2022-10-22T07:41:49.737Z,57.32
2022-10-22T07:44:19.257Z,57.29
2022-10-22T07:46:48.925Z,56.81
2022-10-22T07:49:17.151Z,57.22
2022-10-22T07:51:45.164Z,56.75
2022-10-22T07:54:13.218Z,56.96
2022-10-22T07:56:41.112Z,56.86
2022-10-22T07:59:09.485Z,56.87
2022-10-22T08:01:38.936Z,56.46
2022-10-22T08:04:08.294Z,56.49
2022-10-22T08:06:38.629Z,56.49
2022-10-22T08:09:06.706Z,56.90
2022-10-22T08:11:34.885Z,56.67
2022-10-22T08:14:03.228Z,56.68
2022-10-22T08:16:31.307Z,56.66
2022-10-22T08:19:00.766Z,56.41
2022-10-22T08:21:28.710Z,56.38
2022-10-22T08:23:56.717Z,56.30
2022-10-22T08:26:24.901Z,56.35
2022-10-22T08:28:53.370Z,55.83
2022-10-22T08:31:21.294Z,55.93
2022-10-22T08:33:49.075Z,55.62
2022-10-22T08:36:18.389Z,55.89
2022-10-22T08:38:46.170Z,56.04
2022-10-22T08:41:16.990Z,55.32
2022-10-22T08:44:03.052Z,55.21
2022-10-22T08:46:45.929Z,55.37
2022-10-22T08:49:19.551Z,55.11
2022-10-22T08:51:48.953Z,55.20
2022-10-22T08:54:23.820Z,55.39
2022-10-22T08:57:03.433Z,54.91
2022-10-22T08:59:39.550Z,54.75
2022-10-22T09:02:21.126Z,55.20
2022-10-22T09:04:54.846Z,55.33
2022-10-22T09:07:25.403Z,54.99
2022-10-22T09:09:56.232Z,55.25
2022-10-22T09:12:26.253Z,55.28
2022-10-22T09:14:54.045Z,55.38
2022-10-22T09:17:33.829Z,54.53
2022-10-22T09:20:10.265Z,55.23
2022-10-22T09:22:47.478Z,54.57
2022-10-22T09:25:22.308Z,54.40
2022-10-22T09:27:52.532Z,55.22
2022-10-22T09:30:22.181Z,54.67
2022-10-22T09:32:52.893Z,54.49
2022-10-22T09:35:24.498Z,54.39
2022-10-22T09:37:57.086Z,54.67
2022-10-22T09:40:25.188Z,54.61
2022-10-22T09:42:52.962Z,54.54
2022-10-22T09:45:22.787Z,54.41
2022-10-22T09:48:01.575Z,54.30
2022-10-22T09:50:39.410Z,54.30
2022-10-22T09:53:14.997Z,53.31
2022-10-22T09:55:44.480Z,54.23
2022-10-22T09:58:14.973Z,54.04
2022-10-22T10:00:47.285Z,54.01
2022-10-22T10:03:20.988Z,53.40
2022-10-22T10:05:52.531Z,53.88
2022-10-22T10:08:22.033Z,53.34
2022-10-22T10:10:52.644Z,53.19
2022-10-22T10:13:39.417Z,52.37
2022-10-22T10:16:16.836Z,53.00
2022-10-22T10:18:57.481Z,53.00
2022-10-22T10:21:32.287Z,53.04
2022-10-22T10:24:09.892Z,52.91
2022-10-22T10:26:45.518Z,53.42
2022-10-22T10:29:23.453Z,52.63
2022-10-22T10:32:07.219Z,52.70
2022-10-22T10:34:46.162Z,52.51
2022-10-22T10:37:23.955Z,52.40
2022-10-22T10:40:25.140Z,52.23
2022-10-22T10:43:01.105Z,52.40
2022-10-22T10:45:38.090Z,52.33
2022-10-22T10:48:24.269Z,51.86
2022-10-22T10:51:03.894Z,52.10
2022-10-22T10:53:53.835Z,51.48
2022-10-22T10:56:39.085Z,51.53
2022-10-22T10:59:18.859Z,51.19
2022-10-22T11:02:00.672Z,51.07
2022-10-22T11:04:48.996Z,51.38
2022-10-22T11:07:34.168Z,51.45
2022-10-22T11:10:10.370Z,51.70
2022-10-22T11:12:45.933Z,51.36
2022-10-22T11:15:23.520Z,50.83
2022-10-22T11:17:55.656Z,51.42
2022-10-22T11:20:29.412Z,51.26
2022-10-22T11:23:21.295Z,50.75
2022-10-22T11:25:51.121Z,51.44
2022-10-22T11:28:24.780Z,51.01
2022-10-22T11:31:01.233Z,50.50
2022-10-22T11:33:37.626Z,50.16
2022-10-22T11:36:08.596Z,51.09
2022-10-22T11:38:36.956Z,50.94
2022-10-22T11:41:08.382Z,50.92
2022-10-22T11:43:57.111Z,49.83
2022-10-22T11:46:39.171Z,50.08
2022-10-22T11:49:19.589Z,50.33
2022-10-22T11:51:48.040Z,50.78
2022-10-22T11:54:42.758Z,49.86
2022-10-22T11:57:24.335Z,50.28
2022-10-22T11:59:57.488Z,50.35
2022-10-22T12:02:44.313Z,50.11
2022-10-22T12:05:37.661Z,50.19
2022-10-22T12:08:17.773Z,50.09
2022-10-22T12:10:59.921Z,49.78
2022-10-22T12:13:31.242Z,50.72
2022-10-22T12:16:04.459Z,49.84
2022-10-22T12:18:45.430Z,49.40
2022-10-22T12:21:14.909Z,50.49
2022-10-22T12:23:43.172Z,50.40
2022-10-22T12:26:24.722Z,48.92
2022-10-22T12:28:52.844Z,50.05
2022-10-22T12:31:22.101Z,49.83
2022-10-22T12:33:56.421Z,49.48
2022-10-22T12:36:26.437Z,49.45
2022-10-22T12:38:54.579Z,49.78
2022-10-22T12:41:23.317Z,49.12
2022-10-22T12:44:00.174Z,48.61
2022-10-22T12:46:31.369Z,48.86
2022-10-22T12:49:01.554Z,48.71
2022-10-22T12:54:03.130Z,48.83
2022-10-22T12:56:34.526Z,48.49
2022-10-22T12:59:04.928Z,48.45
2022-10-22T13:01:38.456Z,47.67
2022-10-22T13:04:19.780Z,48.51
2022-10-22T13:06:49.108Z,48.53
2022-10-22T13:09:23.836Z,47.68
2022-10-22T13:11:58.128Z,48.11
2022-10-22T13:14:30.098Z,47.82
2022-10-22T13:17:10.619Z,47.72
2022-10-22T13:19:50.801Z,47.34
2022-10-22T13:22:31.099Z,47.38
2022-10-22T13:25:00.736Z,48.35
2022-10-22T13:27:29.588Z,47.95
2022-10-22T13:30:01.932Z,47.86
2022-10-22T13:32:34.499Z,47.28
2022-10-22T13:35:03.474Z,48.20
2022-10-22T13:37:35.542Z,47.47
2022-10-22T13:40:05.641Z,48.10
2022-10-22T13:42:36.723Z,47.45
2022-10-22T13:45:04.830Z,47.76
2022-10-22T13:47:34.566Z,47.48
2022-10-22T13:50:04.383Z,47.19
2022-10-22T13:52:39.637Z,46.65
2022-10-22T13:55:15.881Z,46.42
2022-10-22T13:57:43.706Z,47.49
2022-10-22T14:00:14.740Z,46.91
2022-10-22T14:02:45.787Z,46.84
2022-10-22T14:05:13.683Z,47.41
2022-10-22T14:07:41.759Z,46.97
2022-10-22T14:10:18.789Z,46.44
2022-10-22T14:12:52.285Z,47.14
2022-10-22T14:15:24.299Z,47.40
2022-10-22T14:17:57.281Z,46.70
2022-10-22T14:20:28.763Z,47.12
2022-10-22T14:22:57.521Z,47.19
2022-10-22T14:25:27.044Z,47.24
2022-10-22T14:27:54.925Z,47.04
2022-10-22T14:30:24.537Z,47.15
2022-10-22T14:32:53.966Z,47.27
2022-10-22T14:35:23.567Z,47.10
2022-10-22T14:37:51.731Z,47.24
2022-10-22T14:40:21.661Z,46.59
2022-10-22T14:42:50.238Z,46.99
2022-10-22T14:45:21.004Z,46.85
2022-10-22T14:47:49.550Z,46.80
2022-10-22T14:50:20.526Z,46.68
2022-10-22T14:52:49.121Z,46.67
2022-10-22T14:55:19.045Z,46.46
2022-10-22T14:57:47.555Z,46.52
2022-10-22T15:00:17.734Z,46.51
2022-10-22T15:02:46.237Z,46.44
2022-10-22T15:05:14.373Z,46.71
2022-10-22T15:07:43.834Z,46.37
2022-10-22T15:10:12.007Z,46.93
2022-10-22T15:12:40.076Z,46.81
2022-10-22T15:15:09.121Z,46.75
2022-10-22T15:17:37.210Z,46.56
2022-10-22T15:20:06.572Z,46.85
2022-10-22T15:22:36.178Z,46.88
2022-10-22T15:25:08.628Z,46.48
2022-10-22T15:27:37.116Z,46.79
2022-10-22T15:30:06.525Z,46.89
2022-10-22T15:32:34.714Z,46.38
2022-10-22T15:35:03.224Z,46.76
2022-10-22T15:37:31.805Z,46.45
2022-10-22T15:40:00.472Z,46.55
2022-10-22T15:42:29.632Z,47.02
2022-10-22T15:44:59.708Z,46.56
2022-10-22T15:47:29.618Z,46.59
2022-10-22T15:49:58.430Z,46.59
2022-10-22T15:52:26.296Z,47.26
2022-10-22T15:54:54.414Z,47.06
2022-10-22T15:57:22.185Z,46.61
2022-10-22T15:59:51.885Z,47.11
2022-10-22T16:02:19.889Z,47.25
2022-10-22T16:04:47.897Z,47.24
2022-10-22T16:07:15.714Z,46.80
2022-10-22T16:09:43.532Z,46.67
2022-10-22T16:12:13.107Z,47.01
2022-10-22T16:14:43.357Z,47.44
2022-10-22T16:17:13.079Z,46.94
2022-10-22T16:19:40.858Z,47.09
2022-10-22T16:22:10.168Z,47.42
2022-10-22T16:24:40.298Z,47.07
2022-10-22T16:27:08.721Z,47.03
2022-10-22T16:29:38.272Z,47.43
2022-10-22T16:32:06.499Z,47.50
2022-10-22T16:34:35.646Z,47.17
2022-10-22T16:37:04.322Z,47.34
2022-10-22T16:39:32.106Z,47.54
2022-10-22T16:41:59.845Z,47.27
2022-10-22T16:44:27.714Z,47.10
2022-10-22T16:46:55.505Z,47.05
2022-10-22T16:49:23.341Z,47.61
2022-10-22T16:51:52.572Z,47.50
2022-10-22T16:54:21.749Z,47.35
2022-10-22T16:56:49.625Z,47.64
2022-10-22T16:59:17.686Z,47.17
2022-10-22T17:01:45.495Z,47.46
2022-10-22T17:04:13.252Z,47.79
2022-10-22T17:06:41.135Z,47.16
2022-10-22T17:09:10.797Z,47.26
2022-10-22T17:11:41.239Z,47.71
2022-10-22T17:14:11.965Z,47.35
2022-10-22T17:16:39.701Z,47.39
2022-10-22T17:19:07.597Z,47.90
2022-10-22T17:21:35.432Z,47.46
2022-10-22T17:24:03.298Z,47.42
2022-10-22T17:26:33.217Z,47.46
2022-10-22T17:29:01.552Z,47.51
2022-10-22T17:31:32.506Z,47.84
2022-10-22T17:34:00.870Z,47.53
2022-10-22T17:36:33.344Z,47.96
2022-10-22T17:39:06.350Z,48.17
2022-10-22T17:41:37.858Z,47.94
2022-10-22T17:44:09.026Z,48.20
2022-10-22T17:46:37.178Z,47.81
2022-10-22T17:49:07.967Z,47.75
2022-10-22T17:51:35.829Z,48.11
2022-10-22T17:54:07.261Z,48.33
2022-10-22T17:56:40.266Z,48.28
2022-10-22T17:59:08.429Z,47.97
2022-10-22T18:01:39.393Z,48.28
2022-10-22T18:04:09.599Z,47.92
2022-10-22T18:06:37.684Z,48.36
2022-10-22T18:09:06.290Z,48.30
2022-10-22T18:11:36.495Z,48.27
2022-10-22T18:14:06.025Z,48.41
2022-10-22T18:16:34.027Z,48.27
2022-10-22T18:19:02.005Z,48.61
2022-10-22T18:21:31.208Z,48.14
2022-10-22T18:24:00.106Z,48.56
2022-10-22T18:26:28.365Z,48.71
2022-10-22T18:28:56.259Z,48.47
2022-10-22T18:31:27.893Z,48.63
2022-10-22T18:33:56.492Z,48.57
2022-10-22T18:36:27.292Z,48.30
2022-10-22T18:38:57.413Z,48.11
2022-10-22T18:41:27.308Z,48.10
2022-10-22T18:44:00.909Z,48.58
2022-10-22T18:46:31.916Z,48.52
2022-10-22T18:49:00.239Z,48.38
2022-10-22T18:51:31.006Z,48.88
2022-10-22T18:54:05.660Z,48.70
2022-10-22T18:56:41.921Z,48.85
2022-10-22T18:59:16.370Z,48.69
2022-10-22T19:01:45.722Z,48.97
2022-10-22T19:04:14.025Z,48.62
2022-10-22T19:06:45.820Z,48.58
2022-10-22T19:09:14.767Z,48.88
2022-10-22T19:11:43.737Z,48.99
2022-10-22T19:14:11.694Z,49.34
2022-10-22T19:16:39.459Z,49.01
2022-10-22T19:19:09.234Z,49.43
2022-10-22T19:21:38.446Z,49.03
2022-10-22T19:24:07.491Z,49.31
2022-10-22T19:26:35.532Z,49.39
2022-10-22T19:29:04.143Z,49.58
2022-10-22T19:31:32.250Z,49.43
2022-10-22T19:34:01.721Z,49.68
2022-10-22T19:36:32.644Z,49.59
2022-10-22T19:39:00.740Z,49.61
2022-10-22T19:41:30.570Z,49.40
2022-10-22T19:44:00.936Z,49.74
2022-10-22T19:46:30.298Z,49.59
2022-10-22T19:48:58.325Z,49.88
2022-10-22T19:51:29.729Z,49.39
2022-10-22T19:54:00.939Z,50.01
2022-10-22T19:56:29.802Z,49.66
2022-10-22T19:58:57.825Z,49.52
2022-10-22T20:01:26.532Z,49.70
2022-10-22T20:03:54.830Z,49.97
2022-10-22T20:06:22.882Z,49.45
2022-10-22T20:08:53.779Z,49.70
2022-10-22T20:11:27.414Z,49.94
2022-10-22T20:13:56.649Z,49.69
2022-10-22T20:16:28.582Z,49.48
2022-10-22T20:19:00.842Z,49.92
2022-10-22T20:21:29.229Z,49.69
2022-10-22T20:23:57.605Z,49.39
2022-10-22T20:26:28.982Z,49.79
2022-10-22T20:28:57.982Z,49.90
2022-10-22T20:31:28.374Z,49.67
2022-10-22T20:33:57.695Z,49.56
2022-10-22T20:36:26.071Z,49.43
2022-10-22T20:38:53.910Z,49.98
2022-10-22T20:41:23.485Z,49.40
2022-10-22T20:43:53.026Z,49.63
2022-10-22T20:46:23.163Z,49.82
2022-10-22T20:48:53.165Z,50.09
2022-10-22T20:51:21.177Z,50.16
2022-10-22T20:53:49.121Z,49.63
2022-10-22T20:56:17.873Z,50.07
2022-10-22T20:58:48.569Z,49.76
2022-10-22T21:01:21.874Z,50.16
2022-10-22T21:03:50.737Z,50.31
2022-10-22T21:06:20.890Z,50.48
2022-10-22T21:08:49.049Z,50.02
2022-10-22T21:11:17.102Z,50.48
2022-10-22T21:13:45.180Z,50.51
2022-10-22T21:16:14.677Z,50.19
2022-10-22T21:18:43.903Z,50.33
2022-10-22T21:21:11.741Z,50.69
2022-10-22T21:23:40.239Z,50.44
2022-10-22T21:26:08.069Z,50.43
2022-10-22T21:28:37.196Z,50.49
2022-10-22T21:31:06.479Z,50.64
2022-10-22T21:33:37.035Z,50.47
2022-10-22T21:36:07.348Z,50.46
2022-10-22T21:38:35.925Z,50.57
2022-10-22T21:41:06.299Z,50.62
2022-10-22T21:43:34.205Z,51.13
2022-10-22T21:46:08.050Z,51.19
2022-10-22T21:48:36.831Z,51.13
2022-10-22T21:51:09.957Z,51.34
2022-10-22T21:53:38.495Z,51.04
2022-10-22T21:56:07.493Z,51.16
2022-10-22T21:58:35.941Z,51.26
2022-10-22T22:01:04.604Z,51.33
2022-10-22T22:03:33.220Z,51.08
2022-10-22T22:06:02.003Z,51.42
2022-10-22T22:08:32.511Z,51.14
2022-10-22T22:11:03.750Z,51.13
2022-10-22T22:13:32.113Z,51.44
2022-10-22T22:16:04.542Z,51.59
2022-10-22T22:18:33.671Z,51.16
2022-10-22T22:21:04.488Z,50.97
2022-10-22T22:23:34.688Z,51.44
2022-10-22T22:26:02.967Z,50.90
2022-10-22T22:28:32.248Z,51.49
2022-10-22T22:31:00.295Z,51.03
2022-10-22T22:33:28.827Z,51.17
2022-10-22T22:35:59.980Z,51.49
2022-10-22T22:38:28.096Z,51.35
2022-10-22T22:40:59.773Z,51.34
2022-10-22T22:43:27.741Z,51.64
2022-10-22T22:46:00.399Z,51.55
2022-10-22T22:48:28.296Z,52.03
2022-10-22T22:50:56.030Z,51.83
2022-10-22T22:53:23.921Z,51.43
2022-10-22T22:55:51.653Z,51.22
2022-10-22T22:58:20.895Z,51.63
2022-10-22T23:00:48.646Z,51.16
2022-10-22T23:03:16.452Z,51.82
2022-10-22T23:05:44.189Z,51.76
2022-10-22T23:08:12.018Z,51.72
2022-10-22T23:10:39.780Z,51.78
2022-10-22T23:13:07.599Z,51.51
2022-10-22T23:15:40.287Z,51.58
2022-10-22T23:18:07.893Z,52.19
2022-10-22T23:20:38.651Z,51.54
2022-10-22T23:23:06.808Z,51.48
2022-10-22T23:25:34.576Z,51.51
2022-10-22T23:28:02.373Z,51.90
2022-10-22T23:30:30.119Z,51.83
2022-10-22T23:32:59.298Z,51.38
2022-10-22T23:35:27.042Z,51.46
2022-10-22T23:37:54.836Z,51.46
2022-10-22T23:40:22.614Z,51.60
2022-10-22T23:42:50.880Z,51.55
2022-10-22T23:45:18.856Z,51.67
2022-10-22T23:47:46.676Z,51.62
2022-10-22T23:50:16.011Z,51.86
2022-10-22T23:52:44.133Z,51.85
2022-10-22T23:55:12.192Z,51.92
2022-10-22T23:57:40.007Z,51.37
